Racecast

Blake Dice

University (WA) · 12 · PATRIOTCO D4A3A · Compare head to head

Athlete rating 119.1 2018 TF season
Best race 121.1 XC
Races 74
Seasons 6 2013 — 2018

RankedNation #21509·CO #608·CO D4A #326·PATRIOT #19·Team #23 ?

Rating scale ?
Speed rating — all races

Cross Country

XC speed rating

2017 XC 116.8

University (WA) · Grade 12

Date Meet Event Result Place Rating Difficulty PR/SR Flags
2017-10-28 Norris Penrose Event Center 5000m 18:15 92nd · 4th on team 118.6 +0.067 ★CR CSR
2017-10-19 Monfort Park 5000m 17:21 12th · 1st on team 121.1 +0.019 ★PR ★CR ★R SR CSR RSR
2017-10-07 Estes Park 5000m 18:54.2 12th · 1st on team 114.6 +0.055 ★CR CSR
2017-09-08 Heritage High School 5000m 17:59 22nd · 2nd on team 114.2 -0.001 ★CR SR CSR
2017-08-25 Norris Penrose Event Center 5000m 19:03.4 28th · 2nd on team 115.4 +0.067 SR CSR RSR

2016 XC 114.4

University (WA) · Grade 11

Date Meet Event Result Place Rating Difficulty PR/SR Flags
2016-11-19 Grande Sports Complex 5000m 18:47 127th · 2nd on team 111.0 +0.004 CSR
2016-10-20 Monfort Park 5000m 17:35 18th · 3rd on team 120.0 +0.019 PR CR SR CSR RSR
2016-09-24 Platte Valley High School 5000m 18:39.3 19th · 2nd on team 115.0 +0.046 ★CR CSR
2016-09-17 Fort Collins High School 5000m 18:25 14th · 2nd on team 114.8 +0.023 ★CR CSR
2016-09-09 Heritage High School 5000m 18:00 18th · 2nd on team 115.1 -0.001 PR CR SR CSR RSR
2016-09-02 Adams County Regional Park 5000m 19:23 77th · 3rd on team 109.8 +0.048 ★CR CSR
2016-08-25 Norris Penrose Event Center 5000m 18:55.5 30th · 1st on team 114.7 +0.067 CR SR CSR RSR

2015 XC 110.3

University (WA) · Grade 10

Date Meet Event Result Place Rating Difficulty PR/SR Flags
2015-11-21 Grande Sports Complex 5000m 18:25 71st · 3rd on team 112.5 +0.004 ★CR CSR
2015-10-22 Monfort Park 5000m 18:16 26th · 2nd on team 114.8 +0.019 PR CR SR CSR RSR
2015-10-03 Island Grove Regional Park 5000m 18:31.5 36th · 4th on team 110.7 +0.003 ★CR CSR
2015-09-30 Josephine Jones Park 5000m 19:08 19th · 4th on team 110.9 +0.034 ★CR CSR
2015-09-25 Monfort Park 5000m 19:17 40th · 3rd on team 111.1 +0.019 CR CSR
2015-09-18 Fort Collins High School 5000m 18:26.9 36th · 3rd on team 113.6 +0.023 PR CR SR CSR RSR
2015-09-11 Heritage High School 5000m 18:59 46th · 5th on team 108.7 -0.001 PR CR SR CSR RSR
2015-09-04 Adams County Regional Park 5000m 21:05 115th · 5th on team 102.6 +0.048 CR CSR
2015-08-28 Norris Penrose Event Center 5000m 20:17.3 44th · 2nd on team 107.9 +0.067 CR SR CSR RSR

2014 XC 102.6

University (WA) · Grade 9

Date Meet Event Result Place Rating Difficulty PR/SR Flags
2014-09-16 Shining Mountain Golf Course and Event Center 5000m 22:07 46th · 7th on team 102.1 +0.095 ★CR CSR
2014-09-12 Heritage High School 5000m 19:06 77th · 7th on team 106.1 -0.001 PR CR SR CSR RSR
2014-09-06 Lyons Middle/High School 5000m 21:18 145th · 6th on team 101.4 +0.046 PR ★CR SR CSR RSR
2014-08-23 Pioneer Park 5000m 21:48.2 20th · 9th on team 101.0 +0.060 PR ★CR SR CSR RSR

2013 XC 95.4

University (WA) · Grade 8

Date Meet Event Result Place Rating Difficulty PR/SR Flags
2013-09-24 Julia deKoevend Park 3000m 14:56 130th · 4th on team 95.4 +0.019 ★PR ★CR R SR CSR RSR

Track & Field

TF speed rating

2018 TF 116.2

University (WA) · Grade 12

Date Meet Event Result Place Rating Difficulty PR/SR Flags
2018-05-11 St. Vrain Invitational 1600m 4:51.04 75th · 1st on team 120.1 -0.015 ★PR SR RSR
2018-05-05 Patriot League Championship 3200m 11:06.75 5th · 2nd on team 113.9 -0.010 ★PR SR
2018-05-05 Patriot League Championship 1600m 4:52.13 7th · 1st on team 119.3 -0.010 PR SR RSR
2018-04-28 Weld County Championships 1600m 4:53.66 9th · 1st on team 118.8 -0.014 PR SR
2018-04-21 Randall Hess Invitational 800m 2:10.66 12th · 3rd on team 119.0 -0.014 ★PR SR RSR
2018-04-14 Pomona Invite 1600m 5:11.31 45th · 1st on team 113.5 -0.011
2018-03-24 Sidney Invite 3200m 11:12.7 6th · 2nd on team 112.8 -0.008 SR
2018-03-16 Rifle Invitational 1600m 5:13.81 13th · 1st on team 112.8 -0.000
2018-03-08 City of Greeley (and Johnstown) Championships 1600m 5:02.02 4th · 1st on team 115.7 -0.011 SR RSR

2017 TF 115.5

University (WA) · Grade 11

Date Meet Event Result Place Rating Difficulty PR/SR Flags
2017-05-12 St. Vrain New Balance Invitational 1600m 4:57.53 64th · 1st on team 117.6 -0.007
2017-05-06 Patriot League Meet 3200m 11:52.27 14th · 4th on team 106.6 -0.008 SR
2017-05-03 Highland Twilight 400m 59.29 19th · 1st on team -0.003 ★PR SR
2017-04-15 Pomona Invite 1600m 4:56.09 48th · 2nd on team 118.0 -0.011 PR SR RSR
2017-04-07 Rebel Roundup 800m 2:13.69 11th · 3rd on team 117.6 +0.002 PR SR
2017-04-01 Altitude Running Invitational 1600m 4:57.03 21st · 2nd on team 117.6 -0.011 PR SR RSR

2016 TF 113.6

University (WA) · Grade 10

Date Meet Event Result Place Rating Difficulty PR/SR Flags
2016-05-07 Patriot League Championships 1600m 5:10.79 11th · 3rd on team 112.4 -0.010
2016-05-07 Patriot League Championships 3200m 11:13.04 6th · 2nd on team 112.2 -0.010 SR
2016-05-03 Highland Twilight Invitational 1600m 5:02.41 6th · 1st on team 116.2 -0.003 PR SR RSR

2015 TF 109.3

University (WA) · Grade 9

Date Meet Event Result Place Rating Difficulty PR/SR Flags
2015-05-02 Patriot League Meet 3200m 11:39.79 8th · 3rd on team 108.9 -0.004
2015-04-24 Welco County Championships 3200m 11:07.21 9th · 2nd on team 113.3 -0.011 PR SR
2015-04-22 Weld County JV Championships 800m 2:16.83 2nd · 1st on team 112.8 -0.011 PR SR
2015-04-22 Weld County JV Championships 1600m 5:06 1st · 1st on team 114.1 -0.011 PR SR RSR
2015-04-18 Randall Hess Invitational 1600m 5:09.83 6th · 1st on team 112.4 -0.014 PR SR
2015-04-14 University Bulldog Team Decathlon 1600m 5:09.9 1st · 1st on team 112.9 -0.011 PR SR
2015-04-08 Weld County JV Meet #4 1600m 5:36.18 1st · 1st on team 105.3 +0.002
2015-04-08 Weld County JV Meet #4 800m 2:25.89 2nd · 2nd on team 107.4 +0.002
2015-04-04 Mountain Range Mustang Invitational 800m 2:19.02 54th · 1st on team 111.3 -0.011 PR SR
2015-04-04 Mountain Range Mustang Invitational 3200m 11:25.15 38th · 2nd on team 110.4 -0.011 PR SR
2015-03-25 Weld County JV Meet #3 1600m 5:10.14 3rd · 2nd on team 113.2 -0.011 PR SR RSR
2015-03-25 Weld County JV Meet #3 800m 2:28.37 9th · 2nd on team 104.7 -0.011
2015-03-14 Frederick Pow Wow Invitational 800m 2:23.57 14th · 2nd on team 108.5 -0.003 PR SR
2015-03-14 Frederick Pow Wow Invitational 3200m 12:03.46 14th · 2nd on team 105.2 -0.003 PR SR
2015-03-11 Platte Valley JV 1600m 5:19.13 5th · 2nd on team 109.6 -0.010 PR SR RSR
2015-03-11 Platte Valley JV 800m 2:24.56 9th · 3rd on team 106.9 -0.010 PR SR
2015-03-07 City to City Challenge 800m 2:28 19th · 1st on team 104.5 -0.011 PR SR RSR
2015-03-07 City to City Challenge 1600m 5:31.7 7th · 2nd on team 105.4 -0.011 PR SR RSR

2014 TF 116.0

University (WA) · Grade 8

Date Meet Event Result Place Rating Difficulty PR/SR Flags
2014-05-13 Middle School League Meet 2 800m 2:42.63 13th · 1st on team 115.1 -0.003
2014-05-13 Middle School League Meet 2 1600m 5:44.46 7th · 1st on team 120.9 -0.003 PR SR
2014-05-01 Highland 5/1/14 1600m 5:48 4th · 1st on team 120.9 -0.003 PR R SR RSR
2014-05-01 Highland 5/1/14 800m 2:40.9 5th · 2nd on team 117.7 -0.003
2014-04-24 Milliken 800m 2:36.4 6th · 1st on team 118.2 -0.014 PR SR
2014-04-24 Milliken 1600m 5:54.4 6th · 1st on team 116.0 -0.014
2014-04-10 WCMS - Mil, Val, Uni, Tur 1600m 5:49.4 4th · 1st on team 119.3 +0.002 PR R SR RSR
2014-04-10 WCMS - Mil, Val, Uni, Tur 800m 2:42.2 6th · 1st on team 115.5 +0.002 PR SR
2014-04-03 Eaton Meet, Platte Valley, Estes Park, Ft.Lupton and University 1600m 6:11.32 9th · 2nd on team 112.5 -0.008
2014-04-03 Eaton Meet, Platte Valley, Estes Park, Ft.Lupton and University 800m 2:51.43 9th · 2nd on team 109.6 -0.008
2014-03-20 University Meet 800m 2:42.64 6th · 1st on team 113.3 -0.011 PR R SR RSR
2014-03-20 University Meet 1600m 6:04.11 8th · 3rd on team 112.7 -0.011 PR SR